sensor_id;sensor_type;location;lat;lon;timestamp;P1;durP1;ratioP1;P2;durP2;ratioP2
49582;SDS011;36329;48.816;44.624;2024-02-26T00:01:53;9.8;;;3.6;;
49582;SDS011;36329;48.816;44.624;2024-02-26T00:04:55;8.8;;;4;;
49582;SDS011;36329;48.816;44.624;2024-02-26T00:07:57;5.7;;;3.4;;
49582;SDS011;36329;48.816;44.624;2024-02-26T00:10:59;10;;;3.9;;
49582;SDS011;36329;48.816;44.624;2024-02-26T00:14:02;7.3;;;3.6;;
49582;SDS011;36329;48.816;44.624;2024-02-26T00:17:04;8.4;;;3.9;;
49582;SDS011;36329;48.816;44.624;2024-02-26T00:20:07;9.1;;;3.8;;
49582;SDS011;36329;48.816;44.624;2024-02-26T00:23:10;7.8;;;3.5;;
49582;SDS011;36329;48.816;44.624;2024-02-26T00:26:12;9.2;;;3.9;;
49582;SDS011;36329;48.816;44.624;2024-02-26T00:29:14;8.2;;;3.8;;
49582;SDS011;36329;48.816;44.624;2024-02-26T00:32:16;8.2;;;3.5;;
49582;SDS011;36329;48.816;44.624;2024-02-26T00:35:19;11.3;;;3.8;;
49582;SDS011;36329;48.816;44.624;2024-02-26T00:38:21;10.1;;;3.4;;
49582;SDS011;36329;48.816;44.624;2024-02-26T00:41:23;10.1;;;3.6;;
49582;SDS011;36329;48.816;44.624;2024-02-26T00:44:25;7.1;;;3.5;;
49582;SDS011;36329;48.816;44.624;2024-02-26T00:47:28;7.6;;;3.7;;
49582;SDS011;36329;48.816;44.624;2024-02-26T00:50:30;6.8;;;3.5;;
49582;SDS011;36329;48.816;44.624;2024-02-26T00:53:32;9.6;;;3.5;;
49582;SDS011;36329;48.816;44.624;2024-02-26T00:56:34;7.6;;;3.6;;
49582;SDS011;36329;48.816;44.624;2024-02-26T00:59:36;7.8;;;3.5;;
49582;SDS011;36329;48.816;44.624;2024-02-26T01:02:38;9.1;;;3.4;;
49582;SDS011;36329;48.816;44.624;2024-02-26T01:05:40;8.9;;;3.4;;
49582;SDS011;36329;48.816;44.624;2024-02-26T01:08:43;6.2;;;3.5;;
49582;SDS011;36329;48.816;44.624;2024-02-26T01:11:45;7.8;;;3.5;;
49582;SDS011;36329;48.816;44.624;2024-02-26T01:14:47;8;;;3.5;;
49582;SDS011;36329;48.816;44.624;2024-02-26T01:17:49;9.3;;;3.5;;
49582;SDS011;36329;48.816;44.624;2024-02-26T01:20:51;5.5;;;3;;
49582;SDS011;36329;48.816;44.624;2024-02-26T01:23:53;8.9;;;3.5;;
49582;SDS011;36329;48.816;44.624;2024-02-26T01:26:56;9.3;;;4.2;;
49582;SDS011;36329;48.816;44.624;2024-02-26T01:29:58;7.8;;;3.5;;
49582;SDS011;36329;48.816;44.624;2024-02-26T01:33:01;10;;;4;;
49582;SDS011;36329;48.816;44.624;2024-02-26T01:36:03;6.7;;;3.1;;
49582;SDS011;36329;48.816;44.624;2024-02-26T01:39:05;8;;;3.7;;
49582;SDS011;36329;48.816;44.624;2024-02-26T01:42:08;8.5;;;3.6;;
49582;SDS011;36329;48.816;44.624;2024-02-26T01:45:12;7.9;;;3.5;;
49582;SDS011;36329;48.816;44.624;2024-02-26T01:48:17;6.6;;;3.6;;
49582;SDS011;36329;48.816;44.624;2024-02-26T01:51:20;5.7;;;3.3;;
49582;SDS011;36329;48.816;44.624;2024-02-26T01:54:22;10;;;3.3;;
49582;SDS011;36329;48.816;44.624;2024-02-26T01:57:25;8.4;;;3.7;;
49582;SDS011;36329;48.816;44.624;2024-02-26T02:00:27;5.7;;;2.7;;
49582;SDS011;36329;48.816;44.624;2024-02-26T02:03:29;8.3;;;3.2;;
49582;SDS011;36329;48.816;44.624;2024-02-26T02:06:32;8.3;;;3.3;;
49582;SDS011;36329;48.816;44.624;2024-02-26T02:09:34;7.1;;;3.2;;
49582;SDS011;36329;48.816;44.624;2024-02-26T02:12:36;6;;;3.2;;
49582;SDS011;36329;48.816;44.624;2024-02-26T02:15:39;8.7;;;3.7;;
49582;SDS011;36329;48.816;44.624;2024-02-26T02:18:41;6.7;;;3.4;;
49582;SDS011;36329;48.816;44.624;2024-02-26T02:21:44;11.1;;;3.8;;
49582;SDS011;36329;48.816;44.624;2024-02-26T02:24:46;8;;;3.4;;
49582;SDS011;36329;48.816;44.624;2024-02-26T02:27:49;6.8;;;3.6;;
49582;SDS011;36329;48.816;44.624;2024-02-26T02:30:52;8.3;;;3.4;;
49582;SDS011;36329;48.816;44.624;2024-02-26T02:33:54;11;;;3.5;;
49582;SDS011;36329;48.816;44.624;2024-02-26T02:36:56;8.5;;;3.6;;
49582;SDS011;36329;48.816;44.624;2024-02-26T02:39:59;7.2;;;3.1;;
49582;SDS011;36329;48.816;44.624;2024-02-26T02:43:01;7.7;;;3.2;;
49582;SDS011;36329;48.816;44.624;2024-02-26T02:46:03;7.1;;;3.4;;
49582;SDS011;36329;48.816;44.624;2024-02-26T02:49:08;11.3;;;3.7;;
49582;SDS011;36329;48.816;44.624;2024-02-26T02:52:10;7.1;;;3.4;;
49582;SDS011;36329;48.816;44.624;2024-02-26T02:55:13;6;;;3.2;;
49582;SDS011;36329;48.816;44.624;2024-02-26T02:58:15;9.4;;;3.6;;
49582;SDS011;36329;48.816;44.624;2024-02-26T03:01:17;8;;;3.3;;
49582;SDS011;36329;48.816;44.624;2024-02-26T03:04:19;6.8;;;3.4;;
49582;SDS011;36329;48.816;44.624;2024-02-26T03:07:23;6.8;;;3.3;;
49582;SDS011;36329;48.816;44.624;2024-02-26T03:10:25;10.7;;;3.6;;
49582;SDS011;36329;48.816;44.624;2024-02-26T03:13:27;8;;;3.4;;
49582;SDS011;36329;48.816;44.624;2024-02-26T03:16:30;6.3;;;3.6;;
49582;SDS011;36329;48.816;44.624;2024-02-26T03:19:32;7.5;;;3.5;;
49582;SDS011;36329;48.816;44.624;2024-02-26T03:22:34;8.4;;;3.3;;
49582;SDS011;36329;48.816;44.624;2024-02-26T03:25:37;7.2;;;3.2;;
49582;SDS011;36329;48.816;44.624;2024-02-26T03:28:39;16;;;4.2;;
49582;SDS011;36329;48.816;44.624;2024-02-26T03:31:41;9.9;;;3.7;;
49582;SDS011;36329;48.816;44.624;2024-02-26T03:34:43;8.8;;;3.7;;
49582;SDS011;36329;48.816;44.624;2024-02-26T03:37:46;10.2;;;3.8;;
49582;SDS011;36329;48.816;44.624;2024-02-26T03:40:48;6.9;;;3.4;;
49582;SDS011;36329;48.816;44.624;2024-02-26T03:43:50;9.5;;;3.5;;
49582;SDS011;36329;48.816;44.624;2024-02-26T03:46:53;8.8;;;3.8;;
49582;SDS011;36329;48.816;44.624;2024-02-26T03:49:55;8.9;;;3.8;;
49582;SDS011;36329;48.816;44.624;2024-02-26T03:52:58;10.6;;;3.4;;
49582;SDS011;36329;48.816;44.624;2024-02-26T03:56:03;11.1;;;3.7;;
49582;SDS011;36329;48.816;44.624;2024-02-26T03:59:06;7.3;;;3.3;;
49582;SDS011;36329;48.816;44.624;2024-02-26T04:02:08;8;;;3.7;;
49582;SDS011;36329;48.816;44.624;2024-02-26T04:05:11;8.5;;;3.3;;
49582;SDS011;36329;48.816;44.624;2024-02-26T04:08:15;9.1;;;3.8;;
49582;SDS011;36329;48.816;44.624;2024-02-26T04:11:17;9.9;;;3.7;;
49582;SDS011;36329;48.816;44.624;2024-02-26T04:14:20;7.5;;;3.7;;
49582;SDS011;36329;48.816;44.624;2024-02-26T04:17:22;7.1;;;3;;
49582;SDS011;36329;48.816;44.624;2024-02-26T04:20:24;8.3;;;3.5;;
49582;SDS011;36329;48.816;44.624;2024-02-26T04:23:26;8;;;3.7;;
49582;SDS011;36329;48.816;44.624;2024-02-26T04:26:29;6.7;;;3.6;;
49582;SDS011;36329;48.816;44.624;2024-02-26T04:29:33;10.2;;;3.6;;
49582;SDS011;36329;48.816;44.624;2024-02-26T04:32:35;6.2;;;3.2;;
49582;SDS011;36329;48.816;44.624;2024-02-26T04:35:37;8;;;3.7;;
49582;SDS011;36329;48.816;44.624;2024-02-26T04:38:39;10.6;;;4.1;;
49582;SDS011;36329;48.816;44.624;2024-02-26T04:41:41;7.9;;;3.5;;
49582;SDS011;36329;48.816;44.624;2024-02-26T04:44:44;7;;;3.8;;
49582;SDS011;36329;48.816;44.624;2024-02-26T04:47:46;9.2;;;3.2;;
49582;SDS011;36329;48.816;44.624;2024-02-26T04:50:48;10.3;;;3.8;;
49582;SDS011;36329;48.816;44.624;2024-02-26T04:53:50;9.3;;;3.7;;
49582;SDS011;36329;48.816;44.624;2024-02-26T04:56:52;7.2;;;3.5;;
49582;SDS011;36329;48.816;44.624;2024-02-26T04:59:55;7.4;;;3.6;;
49582;SDS011;36329;48.816;44.624;2024-02-26T05:02:57;8.7;;;3.6;;
49582;SDS011;36329;48.816;44.624;2024-02-26T05:06:00;8.2;;;3.9;;
49582;SDS011;36329;48.816;44.624;2024-02-26T05:09:03;8.6;;;3.3;;
49582;SDS011;36329;48.816;44.624;2024-02-26T05:12:05;9.2;;;3.8;;
49582;SDS011;36329;48.816;44.624;2024-02-26T05:15:08;8.9;;;3.4;;
49582;SDS011;36329;48.816;44.624;2024-02-26T05:18:10;8.6;;;4;;
49582;SDS011;36329;48.816;44.624;2024-02-26T05:21:18;8.8;;;4.2;;
49582;SDS011;36329;48.816;44.624;2024-02-26T05:24:20;11.6;;;3.6;;
49582;SDS011;36329;48.816;44.624;2024-02-26T05:27:23;7.2;;;3.5;;
49582;SDS011;36329;48.816;44.624;2024-02-26T05:30:25;9.6;;;3.6;;
49582;SDS011;36329;48.816;44.624;2024-02-26T05:33:27;6.6;;;3.3;;
49582;SDS011;36329;48.816;44.624;2024-02-26T05:36:29;9.3;;;3.7;;
49582;SDS011;36329;48.816;44.624;2024-02-26T05:39:32;7.6;;;3.4;;
49582;SDS011;36329;48.816;44.624;2024-02-26T05:42:34;8.7;;;3.7;;
49582;SDS011;36329;48.816;44.624;2024-02-26T05:45:36;16.1;;;3.9;;
49582;SDS011;36329;48.816;44.624;2024-02-26T05:48:38;9.5;;;3.5;;
49582;SDS011;36329;48.816;44.624;2024-02-26T05:51:40;6.9;;;3.7;;
49582;SDS011;36329;48.816;44.624;2024-02-26T05:54:42;13;;;4;;
49582;SDS011;36329;48.816;44.624;2024-02-26T05:57:44;9.1;;;4.2;;
49582;SDS011;36329;48.816;44.624;2024-02-26T06:00:47;12.9;;;4.9;;
49582;SDS011;36329;48.816;44.624;2024-02-26T06:03:49;9.1;;;3.9;;
49582;SDS011;36329;48.816;44.624;2024-02-26T06:06:51;9.4;;;3.8;;
49582;SDS011;36329;48.816;44.624;2024-02-26T06:09:53;8.7;;;3.9;;
49582;SDS011;36329;48.816;44.624;2024-02-26T06:12:55;8.8;;;4.1;;
49582;SDS011;36329;48.816;44.624;2024-02-26T06:15:58;12.3;;;4;;
49582;SDS011;36329;48.816;44.624;2024-02-26T06:19:00;13.6;;;4;;
49582;SDS011;36329;48.816;44.624;2024-02-26T06:22:03;10.5;;;4.1;;
49582;SDS011;36329;48.816;44.624;2024-02-26T06:25:05;9.7;;;3.9;;
49582;SDS011;36329;48.816;44.624;2024-02-26T06:28:07;9.3;;;4;;
49582;SDS011;36329;48.816;44.624;2024-02-26T06:31:10;11.6;;;4.6;;
49582;SDS011;36329;48.816;44.624;2024-02-26T06:34:12;13;;;4.5;;
49582;SDS011;36329;48.816;44.624;2024-02-26T06:37:14;9.3;;;4;;
49582;SDS011;36329;48.816;44.624;2024-02-26T06:40:16;11.4;;;4.2;;
49582;SDS011;36329;48.816;44.624;2024-02-26T06:43:19;12.6;;;5;;
49582;SDS011;36329;48.816;44.624;2024-02-26T06:46:21;15.5;;;4.6;;
49582;SDS011;36329;48.816;44.624;2024-02-26T06:49:24;9.3;;;4.3;;
49582;SDS011;36329;48.816;44.624;2024-02-26T06:52:26;12.5;;;4.6;;
49582;SDS011;36329;48.816;44.624;2024-02-26T06:55:28;9.6;;;3.6;;
49582;SDS011;36329;48.816;44.624;2024-02-26T06:58:30;12.5;;;4.6;;
49582;SDS011;36329;48.816;44.624;2024-02-26T07:01:32;10.9;;;4.4;;
49582;SDS011;36329;48.816;44.624;2024-02-26T07:04:35;8.1;;;4.2;;
49582;SDS011;36329;48.816;44.624;2024-02-26T07:07:37;11.8;;;4.6;;
49582;SDS011;36329;48.816;44.624;2024-02-26T07:10:39;7.4;;;4.2;;
49582;SDS011;36329;48.816;44.624;2024-02-26T07:13:41;12.7;;;4.4;;
49582;SDS011;36329;48.816;44.624;2024-02-26T07:16:43;11.7;;;4.4;;
49582;SDS011;36329;48.816;44.624;2024-02-26T07:19:45;11.1;;;4.2;;
49582;SDS011;36329;48.816;44.624;2024-02-26T07:22:48;12;;;4.5;;
49582;SDS011;36329;48.816;44.624;2024-02-26T07:25:50;11.2;;;5.1;;
49582;SDS011;36329;48.816;44.624;2024-02-26T07:28:52;14.7;;;5;;
49582;SDS011;36329;48.816;44.624;2024-02-26T07:31:55;10.9;;;4.3;;
49582;SDS011;36329;48.816;44.624;2024-02-26T07:34:57;11.1;;;4.7;;
49582;SDS011;36329;48.816;44.624;2024-02-26T07:37:59;12.6;;;5.3;;
49582;SDS011;36329;48.816;44.624;2024-02-26T07:41:02;10.5;;;4.9;;
49582;SDS011;36329;48.816;44.624;2024-02-26T07:44:05;11.6;;;4.9;;
49582;SDS011;36329;48.816;44.624;2024-02-26T07:47:07;11.1;;;4.9;;
49582;SDS011;36329;48.816;44.624;2024-02-26T07:50:09;13.4;;;4.8;;
49582;SDS011;36329;48.816;44.624;2024-02-26T07:53:11;12.1;;;4.8;;
49582;SDS011;36329;48.816;44.624;2024-02-26T07:56:15;13.8;;;4.7;;
49582;SDS011;36329;48.816;44.624;2024-02-26T07:59:47;10.5;;;4.5;;
49582;SDS011;36329;48.816;44.624;2024-02-26T08:02:49;10.1;;;4.4;;
49582;SDS011;36329;48.816;44.624;2024-02-26T08:05:51;11.5;;;4.4;;
49582;SDS011;36329;48.816;44.624;2024-02-26T08:08:53;12.3;;;4.4;;
49582;SDS011;36329;48.816;44.624;2024-02-26T08:11:56;14;;;4.5;;
49582;SDS011;36329;48.816;44.624;2024-02-26T08:14:58;12;;;4.6;;
49582;SDS011;36329;48.816;44.624;2024-02-26T08:18:00;9.4;;;4.5;;
49582;SDS011;36329;48.816;44.624;2024-02-26T08:21:02;16.1;;;5.1;;
49582;SDS011;36329;48.816;44.624;2024-02-26T08:24:05;11.9;;;4.6;;
49582;SDS011;36329;48.816;44.624;2024-02-26T08:27:07;13.6;;;5;;
49582;SDS011;36329;48.816;44.624;2024-02-26T08:30:10;11.2;;;4.9;;
49582;SDS011;36329;48.816;44.624;2024-02-26T08:33:12;14.8;;;4.9;;
49582;SDS011;36329;48.816;44.624;2024-02-26T08:36:15;11.3;;;4.8;;
49582;SDS011;36329;48.816;44.624;2024-02-26T08:39:17;11.8;;;4.8;;
49582;SDS011;36329;48.816;44.624;2024-02-26T08:42:19;14.6;;;5.1;;
49582;SDS011;36329;48.816;44.624;2024-02-26T08:45:21;11.1;;;4.7;;
49582;SDS011;36329;48.816;44.624;2024-02-26T08:48:24;9.6;;;4.6;;
49582;SDS011;36329;48.816;44.624;2024-02-26T08:51:26;14.8;;;4.8;;
49582;SDS011;36329;48.816;44.624;2024-02-26T08:54:28;11;;;4.7;;
49582;SDS011;36329;48.816;44.624;2024-02-26T08:57:31;8.7;;;4.4;;
49582;SDS011;36329;48.816;44.624;2024-02-26T09:00:33;11.1;;;4.4;;
49582;SDS011;36329;48.816;44.624;2024-02-26T09:03:36;11.5;;;4.5;;
49582;SDS011;36329;48.816;44.624;2024-02-26T09:06:38;11.9;;;4.6;;
49582;SDS011;36329;48.816;44.624;2024-02-26T09:09:40;11.4;;;4.5;;
49582;SDS011;36329;48.816;44.624;2024-02-26T09:12:42;9.9;;;4.6;;
49582;SDS011;36329;48.816;44.624;2024-02-26T09:15:44;10.2;;;4.5;;
49582;SDS011;36329;48.816;44.624;2024-02-26T09:18:48;13.3;;;4.5;;
49582;SDS011;36329;48.816;44.624;2024-02-26T09:21:53;9.7;;;4.5;;
49582;SDS011;36329;48.816;44.624;2024-02-26T09:24:55;8;;;4.3;;
49582;SDS011;36329;48.816;44.624;2024-02-26T09:27:58;11;;;4;;
49582;SDS011;36329;48.816;44.624;2024-02-26T09:31:00;10.9;;;4.5;;
49582;SDS011;36329;48.816;44.624;2024-02-26T09:34:02;11.6;;;4.5;;
49582;SDS011;36329;48.816;44.624;2024-02-26T09:37:04;13.4;;;4.1;;
49582;SDS011;36329;48.816;44.624;2024-02-26T09:40:07;12.1;;;4.4;;
49582;SDS011;36329;48.816;44.624;2024-02-26T09:43:09;11;;;3.8;;
49582;SDS011;36329;48.816;44.624;2024-02-26T09:46:16;9.8;;;4;;
49582;SDS011;36329;48.816;44.624;2024-02-26T09:49:18;10.7;;;3.5;;
49582;SDS011;36329;48.816;44.624;2024-02-26T09:52:23;10.7;;;3.3;;
49582;SDS011;36329;48.816;44.624;2024-02-26T09:55:26;11.2;;;3.2;;
49582;SDS011;36329;48.816;44.624;2024-02-26T09:58:28;7.3;;;3.2;;
49582;SDS011;36329;48.816;44.624;2024-02-26T10:01:32;9.3;;;3.2;;
49582;SDS011;36329;48.816;44.624;2024-02-26T10:04:35;8.2;;;2.9;;
49582;SDS011;36329;48.816;44.624;2024-02-26T10:07:38;11.2;;;3.1;;
49582;SDS011;36329;48.816;44.624;2024-02-26T10:10:40;9.5;;;3.2;;
49582;SDS011;36329;48.816;44.624;2024-02-26T10:13:43;9.1;;;3.1;;
49582;SDS011;36329;48.816;44.624;2024-02-26T10:16:45;10.6;;;3.1;;
49582;SDS011;36329;48.816;44.624;2024-02-26T10:19:47;8.3;;;2.9;;
49582;SDS011;36329;48.816;44.624;2024-02-26T10:22:49;7.8;;;3;;
49582;SDS011;36329;48.816;44.624;2024-02-26T10:25:53;7.3;;;3.1;;
49582;SDS011;36329;48.816;44.624;2024-02-26T10:28:56;8.8;;;3;;
49582;SDS011;36329;48.816;44.624;2024-02-26T10:32:02;8.7;;;2.9;;
49582;SDS011;36329;48.816;44.624;2024-02-26T10:35:06;7.4;;;2.5;;
49582;SDS011;36329;48.816;44.624;2024-02-26T10:38:11;10.5;;;2.9;;
49582;SDS011;36329;48.816;44.624;2024-02-26T10:41:14;7.7;;;2.8;;
49582;SDS011;36329;48.816;44.624;2024-02-26T10:44:16;6.6;;;2.9;;
49582;SDS011;36329;48.816;44.624;2024-02-26T10:47:18;9.1;;;2.7;;
49582;SDS011;36329;48.816;44.624;2024-02-26T10:50:21;8.7;;;2.7;;
49582;SDS011;36329;48.816;44.624;2024-02-26T10:53:23;6.7;;;2.9;;
49582;SDS011;36329;48.816;44.624;2024-02-26T10:56:32;9.4;;;3.2;;
49582;SDS011;36329;48.816;44.624;2024-02-26T10:59:36;9;;;3.4;;
49582;SDS011;36329;48.816;44.624;2024-02-26T11:02:40;9;;;3.3;;
49582;SDS011;36329;48.816;44.624;2024-02-26T11:05:43;7.8;;;2.9;;
49582;SDS011;36329;48.816;44.624;2024-02-26T11:08:47;8.5;;;3.4;;
49582;SDS011;36329;48.816;44.624;2024-02-26T11:11:50;7.2;;;3.2;;
49582;SDS011;36329;48.816;44.624;2024-02-26T11:14:53;9;;;4.3;;
49582;SDS011;36329;48.816;44.624;2024-02-26T11:17:55;15.2;;;5;;
49582;SDS011;36329;48.816;44.624;2024-02-26T11:20:59;14.3;;;5.2;;
49582;SDS011;36329;48.816;44.624;2024-02-26T11:24:03;13.2;;;6;;
49582;SDS011;36329;48.816;44.624;2024-02-26T11:27:06;13.1;;;6;;
49582;SDS011;36329;48.816;44.624;2024-02-26T11:30:10;11.1;;;4.9;;
49582;SDS011;36329;48.816;44.624;2024-02-26T11:33:15;14.9;;;5;;
49582;SDS011;36329;48.816;44.624;2024-02-26T11:36:17;14.6;;;6.1;;
49582;SDS011;36329;48.816;44.624;2024-02-26T11:39:21;15.6;;;5.2;;
49582;SDS011;36329;48.816;44.624;2024-02-26T11:42:24;10.5;;;5.1;;
49582;SDS011;36329;48.816;44.624;2024-02-26T11:48:54;8.9;;;3.5;;
49582;SDS011;36329;48.816;44.624;2024-02-26T11:51:57;8.1;;;3.4;;
49582;SDS011;36329;48.816;44.624;2024-02-26T11:55:00;8.4;;;4.1;;
49582;SDS011;36329;48.816;44.624;2024-02-26T11:58:02;9;;;3.6;;
49582;SDS011;36329;48.816;44.624;2024-02-26T12:01:04;10.7;;;4.3;;
49582;SDS011;36329;48.816;44.624;2024-02-26T12:04:07;7.9;;;4.1;;
49582;SDS011;36329;48.816;44.624;2024-02-26T12:07:13;8;;;4.1;;
49582;SDS011;36329;48.816;44.624;2024-02-26T12:10:17;8.8;;;3.5;;
49582;SDS011;36329;48.816;44.624;2024-02-26T12:13:29;9.7;;;3.8;;
49582;SDS011;36329;48.816;44.624;2024-02-26T12:16:36;7.8;;;3.9;;
49582;SDS011;36329;48.816;44.624;2024-02-26T12:19:39;8.3;;;3.7;;
49582;SDS011;36329;48.816;44.624;2024-02-26T12:22:41;8.3;;;3.7;;
49582;SDS011;36329;48.816;44.624;2024-02-26T12:25:48;6.6;;;3.8;;
49582;SDS011;36329;48.816;44.624;2024-02-26T12:28:51;10;;;3.4;;
49582;SDS011;36329;48.816;44.624;2024-02-26T12:31:53;7.2;;;3.3;;
49582;SDS011;36329;48.816;44.624;2024-02-26T12:34:56;9.9;;;3.2;;
49582;SDS011;36329;48.816;44.624;2024-02-26T12:37:59;8.3;;;3.7;;
49582;SDS011;36329;48.816;44.624;2024-02-26T12:41:01;9.1;;;3.4;;
49582;SDS011;36329;48.816;44.624;2024-02-26T12:44:03;8.9;;;3.4;;
49582;SDS011;36329;48.816;44.624;2024-02-26T12:47:06;7.3;;;3.2;;
49582;SDS011;36329;48.816;44.624;2024-02-26T12:50:09;10.3;;;3.3;;
49582;SDS011;36329;48.816;44.624;2024-02-26T12:53:12;10.7;;;3.3;;
49582;SDS011;36329;48.816;44.624;2024-02-26T12:56:14;8.2;;;3.1;;
49582;SDS011;36329;48.816;44.624;2024-02-26T12:59:16;6.5;;;2.7;;
49582;SDS011;36329;48.816;44.624;2024-02-26T13:02:19;6.9;;;2.8;;
49582;SDS011;36329;48.816;44.624;2024-02-26T13:05:21;8.7;;;3;;
49582;SDS011;36329;48.816;44.624;2024-02-26T13:08:24;8.3;;;3;;
49582;SDS011;36329;48.816;44.624;2024-02-26T13:11:26;6;;;2.8;;
49582;SDS011;36329;48.816;44.624;2024-02-26T13:14:29;8.8;;;3.1;;
49582;SDS011;36329;48.816;44.624;2024-02-26T13:17:31;6;;;2.8;;
49582;SDS011;36329;48.816;44.624;2024-02-26T13:20:34;7.1;;;2.7;;
49582;SDS011;36329;48.816;44.624;2024-02-26T13:23:37;6.4;;;2.5;;
49582;SDS011;36329;48.816;44.624;2024-02-26T13:26:40;8.1;;;2.9;;
49582;SDS011;36329;48.816;44.624;2024-02-26T13:29:42;6.2;;;2.7;;
49582;SDS011;36329;48.816;44.624;2024-02-26T13:32:45;5.7;;;2.6;;
49582;SDS011;36329;48.816;44.624;2024-02-26T13:35:47;5.8;;;2.7;;
49582;SDS011;36329;48.816;44.624;2024-02-26T13:38:51;7.1;;;2.8;;
49582;SDS011;36329;48.816;44.624;2024-02-26T13:41:54;6.6;;;2.7;;
49582;SDS011;36329;48.816;44.624;2024-02-26T13:44:56;4.7;;;2.4;;
49582;SDS011;36329;48.816;44.624;2024-02-26T13:48:01;5.8;;;2.5;;
49582;SDS011;36329;48.816;44.624;2024-02-26T13:51:04;4.7;;;2.6;;
49582;SDS011;36329;48.816;44.624;2024-02-26T13:54:06;5.7;;;2.2;;
49582;SDS011;36329;48.816;44.624;2024-02-26T13:57:09;6;;;2.5;;
49582;SDS011;36329;48.816;44.624;2024-02-26T14:00:11;6;;;2.7;;
49582;SDS011;36329;48.816;44.624;2024-02-26T14:03:14;7.4;;;3;;
49582;SDS011;36329;48.816;44.624;2024-02-26T14:06:16;6.9;;;2.8;;
49582;SDS011;36329;48.816;44.624;2024-02-26T14:09:18;7.2;;;3;;
49582;SDS011;36329;48.816;44.624;2024-02-26T14:12:21;7.8;;;2.9;;
49582;SDS011;36329;48.816;44.624;2024-02-26T14:15:23;7.2;;;2.9;;
49582;SDS011;36329;48.816;44.624;2024-02-26T14:18:25;6.7;;;3;;
49582;SDS011;36329;48.816;44.624;2024-02-26T14:21:27;9;;;3.4;;
49582;SDS011;36329;48.816;44.624;2024-02-26T14:24:29;8.2;;;4;;
49582;SDS011;36329;48.816;44.624;2024-02-26T14:27:32;7.1;;;3.4;;
49582;SDS011;36329;48.816;44.624;2024-02-26T14:30:34;8;;;3.4;;
49582;SDS011;36329;48.816;44.624;2024-02-26T14:33:37;9.2;;;3.9;;
49582;SDS011;36329;48.816;44.624;2024-02-26T14:36:40;9.4;;;3.8;;
49582;SDS011;36329;48.816;44.624;2024-02-26T14:39:42;10.7;;;4;;
49582;SDS011;36329;48.816;44.624;2024-02-26T14:42:44;9.9;;;3.7;;
49582;SDS011;36329;48.816;44.624;2024-02-26T14:45:47;13.1;;;4.4;;
49582;SDS011;36329;48.816;44.624;2024-02-26T14:48:49;9.7;;;3.5;;
49582;SDS011;36329;48.816;44.624;2024-02-26T14:51:51;7.9;;;3.4;;
49582;SDS011;36329;48.816;44.624;2024-02-26T14:54:53;8.7;;;4.1;;
49582;SDS011;36329;48.816;44.624;2024-02-26T14:57:55;13.3;;;4;;
49582;SDS011;36329;48.816;44.624;2024-02-26T15:00:57;9.9;;;4;;
49582;SDS011;36329;48.816;44.624;2024-02-26T15:03:59;8.3;;;3.8;;
49582;SDS011;36329;48.816;44.624;2024-02-26T15:07:02;13.2;;;4.2;;
49582;SDS011;36329;48.816;44.624;2024-02-26T15:10:04;9.4;;;4;;
49582;SDS011;36329;48.816;44.624;2024-02-26T15:13:07;12.8;;;4.4;;
49582;SDS011;36329;48.816;44.624;2024-02-26T15:16:09;12.6;;;4.6;;
49582;SDS011;36329;48.816;44.624;2024-02-26T15:19:19;14.5;;;4.7;;
49582;SDS011;36329;48.816;44.624;2024-02-26T15:22:21;22;;;5.4;;
49582;SDS011;36329;48.816;44.624;2024-02-26T15:25:23;13.9;;;5.5;;
49582;SDS011;36329;48.816;44.624;2024-02-26T15:28:25;15.7;;;5.1;;
49582;SDS011;36329;48.816;44.624;2024-02-26T15:31:27;12.1;;;4.7;;
49582;SDS011;36329;48.816;44.624;2024-02-26T15:34:29;10.8;;;4.3;;
49582;SDS011;36329;48.816;44.624;2024-02-26T15:37:32;9.3;;;4.1;;
49582;SDS011;36329;48.816;44.624;2024-02-26T15:40:34;11.4;;;3.9;;
49582;SDS011;36329;48.816;44.624;2024-02-26T15:43:36;13.6;;;3.8;;
49582;SDS011;36329;48.816;44.624;2024-02-26T15:46:39;13.6;;;4.6;;
49582;SDS011;36329;48.816;44.624;2024-02-26T15:49:41;13.7;;;4;;
49582;SDS011;36329;48.816;44.624;2024-02-26T15:52:43;13;;;4.2;;
49582;SDS011;36329;48.816;44.624;2024-02-26T15:55:45;11.2;;;4.4;;
49582;SDS011;36329;48.816;44.624;2024-02-26T15:58:47;10.4;;;4.1;;
49582;SDS011;36329;48.816;44.624;2024-02-26T16:01:49;9.8;;;3.9;;
49582;SDS011;36329;48.816;44.624;2024-02-26T16:04:52;12.2;;;4.5;;
49582;SDS011;36329;48.816;44.624;2024-02-26T16:07:55;11.2;;;3.9;;
49582;SDS011;36329;48.816;44.624;2024-02-26T16:11:02;8.4;;;3.6;;
49582;SDS011;36329;48.816;44.624;2024-02-26T16:14:07;8.5;;;3.2;;
49582;SDS011;36329;48.816;44.624;2024-02-26T16:17:16;7.1;;;3;;
49582;SDS011;36329;48.816;44.624;2024-02-26T16:20:23;9;;;3;;
49582;SDS011;36329;48.816;44.624;2024-02-26T16:23:26;6.8;;;2.8;;
49582;SDS011;36329;48.816;44.624;2024-02-26T16:26:28;5.1;;;2.5;;
49582;SDS011;36329;48.816;44.624;2024-02-26T16:29:31;8.8;;;3;;
49582;SDS011;36329;48.816;44.624;2024-02-26T16:32:33;5.3;;;2.7;;
49582;SDS011;36329;48.816;44.624;2024-02-26T16:35:35;12.3;;;4.1;;
49582;SDS011;36329;48.816;44.624;2024-02-26T16:38:38;10.5;;;4;;
49582;SDS011;36329;48.816;44.624;2024-02-26T16:41:40;10.4;;;4;;
49582;SDS011;36329;48.816;44.624;2024-02-26T16:44:42;12.5;;;4.4;;
49582;SDS011;36329;48.816;44.624;2024-02-26T16:47:44;10.4;;;4.1;;
49582;SDS011;36329;48.816;44.624;2024-02-26T16:50:47;10.4;;;4.4;;
49582;SDS011;36329;48.816;44.624;2024-02-26T16:53:49;8.8;;;4.4;;
49582;SDS011;36329;48.816;44.624;2024-02-26T16:56:51;9.4;;;4.5;;
49582;SDS011;36329;48.816;44.624;2024-02-26T16:59:53;11.4;;;5;;
49582;SDS011;36329;48.816;44.624;2024-02-26T17:02:56;8.3;;;4.1;;
49582;SDS011;36329;48.816;44.624;2024-02-26T17:05:58;11.6;;;4.2;;
49582;SDS011;36329;48.816;44.624;2024-02-26T17:09:00;12.6;;;4.2;;
49582;SDS011;36329;48.816;44.624;2024-02-26T17:12:02;11.8;;;4.6;;
49582;SDS011;36329;48.816;44.624;2024-02-26T17:15:05;11.8;;;4.8;;
49582;SDS011;36329;48.816;44.624;2024-02-26T17:18:08;9.2;;;3.8;;
49582;SDS011;36329;48.816;44.624;2024-02-26T17:21:14;11.6;;;4.3;;
49582;SDS011;36329;48.816;44.624;2024-02-26T17:24:18;11.1;;;4.1;;
49582;SDS011;36329;48.816;44.624;2024-02-26T17:27:20;8.6;;;4.3;;
49582;SDS011;36329;48.816;44.624;2024-02-26T17:30:23;10.9;;;4.2;;
49582;SDS011;36329;48.816;44.624;2024-02-26T17:33:25;8.7;;;4;;
49582;SDS011;36329;48.816;44.624;2024-02-26T17:36:27;8.8;;;3.7;;
49582;SDS011;36329;48.816;44.624;2024-02-26T17:39:30;13.7;;;4;;
49582;SDS011;36329;48.816;44.624;2024-02-26T17:42:32;7.6;;;3.8;;
49582;SDS011;36329;48.816;44.624;2024-02-26T17:45:34;8.1;;;3.5;;
49582;SDS011;36329;48.816;44.624;2024-02-26T17:48:36;8.7;;;4;;
49582;SDS011;36329;48.816;44.624;2024-02-26T17:51:39;8.8;;;4.1;;
49582;SDS011;36329;48.816;44.624;2024-02-26T17:54:41;10.7;;;4.3;;
49582;SDS011;36329;48.816;44.624;2024-02-26T17:57:43;9.1;;;4.3;;
49582;SDS011;36329;48.816;44.624;2024-02-26T18:00:45;10;;;4;;
49582;SDS011;36329;48.816;44.624;2024-02-26T18:03:48;7.6;;;4;;
49582;SDS011;36329;48.816;44.624;2024-02-26T18:06:50;11.7;;;4.3;;
49582;SDS011;36329;48.816;44.624;2024-02-26T18:09:52;9.3;;;4.3;;
49582;SDS011;36329;48.816;44.624;2024-02-26T18:12:54;9.8;;;4.3;;
49582;SDS011;36329;48.816;44.624;2024-02-26T18:15:56;8.4;;;3.8;;
49582;SDS011;36329;48.816;44.624;2024-02-26T18:18:59;10.9;;;3.8;;
49582;SDS011;36329;48.816;44.624;2024-02-26T18:22:01;11.6;;;4;;
49582;SDS011;36329;48.816;44.624;2024-02-26T18:25:04;9.8;;;3.8;;
49582;SDS011;36329;48.816;44.624;2024-02-26T18:28:06;9.9;;;4.1;;
49582;SDS011;36329;48.816;44.624;2024-02-26T18:31:09;13.1;;;4.2;;
49582;SDS011;36329;48.816;44.624;2024-02-26T18:34:11;12.3;;;4.2;;
49582;SDS011;36329;48.816;44.624;2024-02-26T18:37:13;6.9;;;3.8;;
49582;SDS011;36329;48.816;44.624;2024-02-26T18:40:15;14.2;;;4.1;;
49582;SDS011;36329;48.816;44.624;2024-02-26T18:43:17;12.2;;;4;;